sensor_id;sensor_type;location;lat;lon;timestamp;P1;durP1;ratioP1;P2;durP2;ratioP2
39890;SDS011;25564;53.312;9.790;2022-07-04T00:00:44;7.57;;;2.97;;
39890;SDS011;25564;53.312;9.790;2022-07-04T00:03:15;6.47;;;3.80;;
39890;SDS011;25564;53.312;9.790;2022-07-04T00:05:47;5.67;;;2.97;;
39890;SDS011;25564;53.312;9.790;2022-07-04T00:08:18;7.10;;;3.17;;
39890;SDS011;25564;53.312;9.790;2022-07-04T00:10:50;8.97;;;3.23;;
39890;SDS011;25564;53.312;9.790;2022-07-04T00:13:21;7.00;;;3.30;;
39890;SDS011;25564;53.312;9.790;2022-07-04T00:15:53;6.33;;;2.70;;
39890;SDS011;25564;53.312;9.790;2022-07-04T00:18:24;5.57;;;2.80;;
39890;SDS011;25564;53.312;9.790;2022-07-04T00:20:56;6.23;;;3.20;;
39890;SDS011;25564;53.312;9.790;2022-07-04T00:23:27;4.13;;;2.63;;
39890;SDS011;25564;53.312;9.790;2022-07-04T00:25:59;4.77;;;2.53;;
39890;SDS011;25564;53.312;9.790;2022-07-04T00:28:30;11.40;;;3.37;;
39890;SDS011;25564;53.312;9.790;2022-07-04T00:31:01;6.67;;;3.00;;
39890;SDS011;25564;53.312;9.790;2022-07-04T00:33:33;5.47;;;3.07;;
39890;SDS011;25564;53.312;9.790;2022-07-04T00:36:04;6.23;;;2.80;;
39890;SDS011;25564;53.312;9.790;2022-07-04T00:38:36;6.50;;;3.13;;
39890;SDS011;25564;53.312;9.790;2022-07-04T00:41:07;7.33;;;3.67;;
39890;SDS011;25564;53.312;9.790;2022-07-04T00:43:38;5.47;;;2.47;;
39890;SDS011;25564;53.312;9.790;2022-07-04T00:46:30;6.73;;;3.50;;
39890;SDS011;25564;53.312;9.790;2022-07-04T00:49:05;7.10;;;3.33;;
39890;SDS011;25564;53.312;9.790;2022-07-04T00:51:38;6.13;;;3.17;;
39890;SDS011;25564;53.312;9.790;2022-07-04T00:54:11;4.93;;;3.07;;
39890;SDS011;25564;53.312;9.790;2022-07-04T00:56:45;4.50;;;3.20;;
39890;SDS011;25564;53.312;9.790;2022-07-04T00:59:16;8.33;;;2.90;;
39890;SDS011;25564;53.312;9.790;2022-07-04T01:01:48;3.73;;;2.60;;
39890;SDS011;25564;53.312;9.790;2022-07-04T01:04:20;11.20;;;2.97;;
39890;SDS011;25564;53.312;9.790;2022-07-04T01:06:52;8.43;;;3.67;;
39890;SDS011;25564;53.312;9.790;2022-07-04T01:09:23;6.93;;;3.37;;
39890;SDS011;25564;53.312;9.790;2022-07-04T01:11:54;6.33;;;2.90;;
39890;SDS011;25564;53.312;9.790;2022-07-04T01:14:26;6.73;;;3.10;;
39890;SDS011;25564;53.312;9.790;2022-07-04T01:16:57;5.77;;;3.47;;
39890;SDS011;25564;53.312;9.790;2022-07-04T01:19:28;7.83;;;2.70;;
39890;SDS011;25564;53.312;9.790;2022-07-04T01:22:04;6.83;;;3.10;;
39890;SDS011;25564;53.312;9.790;2022-07-04T01:24:37;7.40;;;3.40;;
39890;SDS011;25564;53.312;9.790;2022-07-04T01:27:08;5.30;;;3.13;;
39890;SDS011;25564;53.312;9.790;2022-07-04T01:29:40;5.23;;;3.10;;
39890;SDS011;25564;53.312;9.790;2022-07-04T01:32:11;4.83;;;3.00;;
39890;SDS011;25564;53.312;9.790;2022-07-04T01:34:43;8.27;;;3.93;;
39890;SDS011;25564;53.312;9.790;2022-07-04T01:37:14;6.07;;;3.73;;
39890;SDS011;25564;53.312;9.790;2022-07-04T01:39:46;9.73;;;4.00;;
39890;SDS011;25564;53.312;9.790;2022-07-04T01:42:17;5.63;;;4.00;;
39890;SDS011;25564;53.312;9.790;2022-07-04T01:44:49;7.53;;;4.07;;
39890;SDS011;25564;53.312;9.790;2022-07-04T01:47:20;10.63;;;4.07;;
39890;SDS011;25564;53.312;9.790;2022-07-04T01:49:51;7.03;;;4.03;;
39890;SDS011;25564;53.312;9.790;2022-07-04T01:52:23;9.87;;;3.77;;
39890;SDS011;25564;53.312;9.790;2022-07-04T01:54:54;6.90;;;4.20;;
39890;SDS011;25564;53.312;9.790;2022-07-04T01:57:26;10.00;;;4.50;;
39890;SDS011;25564;53.312;9.790;2022-07-04T01:59:57;10.70;;;4.37;;
39890;SDS011;25564;53.312;9.790;2022-07-04T02:02:47;14.77;;;4.70;;
39890;SDS011;25564;53.312;9.790;2022-07-04T02:05:18;7.57;;;4.70;;
39890;SDS011;25564;53.312;9.790;2022-07-04T02:07:50;6.27;;;4.53;;
39890;SDS011;25564;53.312;9.790;2022-07-04T02:10:22;6.47;;;4.10;;
39890;SDS011;25564;53.312;9.790;2022-07-04T02:12:53;13.30;;;5.07;;
39890;SDS011;25564;53.312;9.790;2022-07-04T02:15:35;10.60;;;4.33;;
39890;SDS011;25564;53.312;9.790;2022-07-04T02:18:12;9.20;;;4.27;;
39890;SDS011;25564;53.312;9.790;2022-07-04T02:20:44;6.83;;;4.40;;
39890;SDS011;25564;53.312;9.790;2022-07-04T02:23:15;9.07;;;4.90;;
39890;SDS011;25564;53.312;9.790;2022-07-04T02:25:47;7.07;;;4.67;;
39890;SDS011;25564;53.312;9.790;2022-07-04T02:28:18;10.57;;;5.30;;
39890;SDS011;25564;53.312;9.790;2022-07-04T02:30:49;9.20;;;5.27;;
39890;SDS011;25564;53.312;9.790;2022-07-04T02:33:21;11.17;;;5.27;;
39890;SDS011;25564;53.312;9.790;2022-07-04T02:35:52;10.87;;;5.07;;
39890;SDS011;25564;53.312;9.790;2022-07-04T02:38:24;7.17;;;4.70;;
39890;SDS011;25564;53.312;9.790;2022-07-04T02:40:55;9.13;;;5.00;;
39890;SDS011;25564;53.312;9.790;2022-07-04T02:43:26;8.57;;;4.50;;
39890;SDS011;25564;53.312;9.790;2022-07-04T02:45:58;7.77;;;5.03;;
39890;SDS011;25564;53.312;9.790;2022-07-04T02:48:29;10.40;;;5.20;;
39890;SDS011;25564;53.312;9.790;2022-07-04T02:51:07;8.17;;;5.80;;
39890;SDS011;25564;53.312;9.790;2022-07-04T02:53:39;12.30;;;5.70;;
39890;SDS011;25564;53.312;9.790;2022-07-04T02:56:10;9.97;;;5.80;;
39890;SDS011;25564;53.312;9.790;2022-07-04T02:58:42;7.40;;;5.57;;
39890;SDS011;25564;53.312;9.790;2022-07-04T03:01:13;9.17;;;5.73;;
39890;SDS011;25564;53.312;9.790;2022-07-04T03:03:46;10.30;;;6.03;;
39890;SDS011;25564;53.312;9.790;2022-07-04T03:06:18;11.77;;;6.60;;
39890;SDS011;25564;53.312;9.790;2022-07-04T03:08:49;10.70;;;6.13;;
39890;SDS011;25564;53.312;9.790;2022-07-04T03:11:20;9.07;;;5.47;;
39890;SDS011;25564;53.312;9.790;2022-07-04T03:13:52;14.17;;;6.67;;
39890;SDS011;25564;53.312;9.790;2022-07-04T03:16:23;10.73;;;6.00;;
39890;SDS011;25564;53.312;9.790;2022-07-04T03:18:55;13.30;;;5.87;;
39890;SDS011;25564;53.312;9.790;2022-07-04T03:21:26;12.87;;;6.43;;
39890;SDS011;25564;53.312;9.790;2022-07-04T03:23:57;15.27;;;6.17;;
39890;SDS011;25564;53.312;9.790;2022-07-04T03:26:29;11.27;;;6.93;;
39890;SDS011;25564;53.312;9.790;2022-07-04T03:29:02;11.67;;;6.67;;
39890;SDS011;25564;53.312;9.790;2022-07-04T03:31:34;11.70;;;6.40;;
39890;SDS011;25564;53.312;9.790;2022-07-04T03:34:05;10.60;;;6.10;;
39890;SDS011;25564;53.312;9.790;2022-07-04T03:36:37;10.07;;;6.10;;
39890;SDS011;25564;53.312;9.790;2022-07-04T03:39:08;12.53;;;7.80;;
39890;SDS011;25564;53.312;9.790;2022-07-04T03:41:40;14.97;;;7.53;;
39890;SDS011;25564;53.312;9.790;2022-07-04T03:44:11;12.97;;;6.93;;
39890;SDS011;25564;53.312;9.790;2022-07-04T03:46:42;13.73;;;6.37;;
39890;SDS011;25564;53.312;9.790;2022-07-04T03:49:14;15.13;;;7.70;;
39890;SDS011;25564;53.312;9.790;2022-07-04T03:51:45;11.20;;;6.80;;
39890;SDS011;25564;53.312;9.790;2022-07-04T03:54:17;31.40;;;7.70;;
39890;SDS011;25564;53.312;9.790;2022-07-04T03:56:48;14.37;;;7.30;;
39890;SDS011;25564;53.312;9.790;2022-07-04T03:59:20;12.37;;;7.20;;
39890;SDS011;25564;53.312;9.790;2022-07-04T04:01:51;28.13;;;7.57;;
39890;SDS011;25564;53.312;9.790;2022-07-04T04:04:23;23.37;;;7.30;;
39890;SDS011;25564;53.312;9.790;2022-07-04T04:07:13;17.87;;;6.77;;
39890;SDS011;25564;53.312;9.790;2022-07-04T04:09:44;14.30;;;6.87;;
39890;SDS011;25564;53.312;9.790;2022-07-04T04:12:16;15.03;;;7.83;;
39890;SDS011;25564;53.312;9.790;2022-07-04T04:14:47;14.17;;;6.77;;
39890;SDS011;25564;53.312;9.790;2022-07-04T04:17:19;15.90;;;7.23;;
39890;SDS011;25564;53.312;9.790;2022-07-04T04:19:50;9.17;;;6.53;;
39890;SDS011;25564;53.312;9.790;2022-07-04T04:22:22;10.33;;;6.50;;
39890;SDS011;25564;53.312;9.790;2022-07-04T04:24:53;10.10;;;6.33;;
39890;SDS011;25564;53.312;9.790;2022-07-04T04:27:25;12.33;;;6.00;;
39890;SDS011;25564;53.312;9.790;2022-07-04T04:29:56;9.17;;;5.90;;
39890;SDS011;25564;53.312;9.790;2022-07-04T04:32:27;9.23;;;5.77;;
39890;SDS011;25564;53.312;9.790;2022-07-04T04:34:59;9.17;;;5.80;;
39890;SDS011;25564;53.312;9.790;2022-07-04T04:37:30;7.90;;;5.00;;
39890;SDS011;25564;53.312;9.790;2022-07-04T04:40:02;11.47;;;5.17;;
39890;SDS011;25564;53.312;9.790;2022-07-04T04:42:33;5.83;;;4.80;;
39890;SDS011;25564;53.312;9.790;2022-07-04T04:45:07;7.23;;;4.80;;
39890;SDS011;25564;53.312;9.790;2022-07-04T04:47:39;8.83;;;5.47;;
39890;SDS011;25564;53.312;9.790;2022-07-04T04:50:10;15.90;;;5.93;;
39890;SDS011;25564;53.312;9.790;2022-07-04T04:52:43;7.23;;;4.80;;
39890;SDS011;25564;53.312;9.790;2022-07-04T04:55:14;6.77;;;4.43;;
39890;SDS011;25564;53.312;9.790;2022-07-04T04:57:46;6.30;;;3.87;;
39890;SDS011;25564;53.312;9.790;2022-07-04T05:00:17;7.90;;;4.43;;
39890;SDS011;25564;53.312;9.790;2022-07-04T05:02:48;7.87;;;4.80;;
39890;SDS011;25564;53.312;9.790;2022-07-04T05:05:20;7.83;;;5.07;;
39890;SDS011;25564;53.312;9.790;2022-07-04T05:07:51;9.13;;;4.87;;
39890;SDS011;25564;53.312;9.790;2022-07-04T05:10:23;9.73;;;4.63;;
39890;SDS011;25564;53.312;9.790;2022-07-04T05:12:54;7.03;;;4.43;;
39890;SDS011;25564;53.312;9.790;2022-07-04T05:15:26;13.67;;;4.70;;
39890;SDS011;25564;53.312;9.790;2022-07-04T05:17:57;6.73;;;4.40;;
39890;SDS011;25564;53.312;9.790;2022-07-04T05:20:29;6.63;;;4.13;;
39890;SDS011;25564;53.312;9.790;2022-07-04T05:23:00;6.23;;;4.13;;
39890;SDS011;25564;53.312;9.790;2022-07-04T05:25:32;6.00;;;3.80;;
39890;SDS011;25564;53.312;9.790;2022-07-04T05:28:03;5.13;;;3.57;;
39890;SDS011;25564;53.312;9.790;2022-07-04T05:30:35;5.53;;;3.70;;
39890;SDS011;25564;53.312;9.790;2022-07-04T05:33:06;8.97;;;4.03;;
39890;SDS011;25564;53.312;9.790;2022-07-04T05:35:37;4.93;;;3.90;;
39890;SDS011;25564;53.312;9.790;2022-07-04T05:38:09;6.40;;;3.63;;
39890;SDS011;25564;53.312;9.790;2022-07-04T05:40:41;5.60;;;3.30;;
39890;SDS011;25564;53.312;9.790;2022-07-04T05:43:12;4.73;;;3.00;;
39890;SDS011;25564;53.312;9.790;2022-07-04T05:45:43;4.83;;;2.63;;
39890;SDS011;25564;53.312;9.790;2022-07-04T05:48:15;11.97;;;3.63;;
39890;SDS011;25564;53.312;9.790;2022-07-04T05:50:46;6.03;;;3.27;;
39890;SDS011;25564;53.312;9.790;2022-07-04T05:53:18;9.10;;;2.83;;
39890;SDS011;25564;53.312;9.790;2022-07-04T05:55:49;6.83;;;3.33;;
39890;SDS011;25564;53.312;9.790;2022-07-04T05:58:21;5.93;;;2.67;;
39890;SDS011;25564;53.312;9.790;2022-07-04T06:00:52;5.73;;;2.47;;
39890;SDS011;25564;53.312;9.790;2022-07-04T06:03:24;7.00;;;2.43;;
39890;SDS011;25564;53.312;9.790;2022-07-04T06:05:55;4.50;;;2.67;;
39890;SDS011;25564;53.312;9.790;2022-07-04T06:08:26;6.10;;;2.70;;
39890;SDS011;25564;53.312;9.790;2022-07-04T06:10:58;3.10;;;2.15;;
39890;SDS011;25564;53.312;9.790;2022-07-04T06:13:29;4.97;;;2.58;;
39890;SDS011;25564;53.312;9.790;2022-07-04T06:16:01;5.05;;;2.85;;
39890;SDS011;25564;53.312;9.790;2022-07-04T06:18:32;4.18;;;2.25;;
39890;SDS011;25564;53.312;9.790;2022-07-04T06:21:04;4.43;;;2.08;;
39890;SDS011;25564;53.312;9.790;2022-07-04T06:23:35;5.15;;;1.98;;
39890;SDS011;25564;53.312;9.790;2022-07-04T06:26:07;3.90;;;1.88;;
39890;SDS011;25564;53.312;9.790;2022-07-04T06:28:38;4.25;;;2.28;;
39890;SDS011;25564;53.312;9.790;2022-07-04T06:31:18;5.07;;;1.80;;
39890;SDS011;25564;53.312;9.790;2022-07-04T06:33:49;10.93;;;2.30;;
39890;SDS011;25564;53.312;9.790;2022-07-04T06:36:39;4.38;;;1.80;;
39890;SDS011;25564;53.312;9.790;2022-07-04T06:39:11;6.63;;;1.75;;
39890;SDS011;25564;53.312;9.790;2022-07-04T06:41:43;5.47;;;1.67;;
39890;SDS011;25564;53.312;9.790;2022-07-04T06:44:14;3.03;;;1.48;;
39890;SDS011;25564;53.312;9.790;2022-07-04T06:46:46;3.85;;;1.40;;
39890;SDS011;25564;53.312;9.790;2022-07-04T06:49:17;3.10;;;1.30;;
39890;SDS011;25564;53.312;9.790;2022-07-04T06:51:48;3.58;;;1.30;;
39890;SDS011;25564;53.312;9.790;2022-07-04T06:54:20;3.20;;;1.40;;
39890;SDS011;25564;53.312;9.790;2022-07-04T06:56:51;3.15;;;1.52;;
39890;SDS011;25564;53.312;9.790;2022-07-04T06:59:43;3.63;;;1.23;;
39890;SDS011;25564;53.312;9.790;2022-07-04T07:02:15;5.05;;;2.03;;
39890;SDS011;25564;53.312;9.790;2022-07-04T07:04:46;4.90;;;1.35;;
39890;SDS011;25564;53.312;9.790;2022-07-04T07:07:18;5.38;;;1.20;;
39890;SDS011;25564;53.312;9.790;2022-07-04T07:09:49;4.53;;;1.48;;
39890;SDS011;25564;53.312;9.790;2022-07-04T07:12:22;3.75;;;1.10;;
39890;SDS011;25564;53.312;9.790;2022-07-04T07:14:55;3.60;;;1.20;;
39890;SDS011;25564;53.312;9.790;2022-07-04T07:17:27;4.63;;;1.30;;
39890;SDS011;25564;53.312;9.790;2022-07-04T07:19:58;2.55;;;1.25;;
39890;SDS011;25564;53.312;9.790;2022-07-04T07:22:30;4.20;;;1.50;;
39890;SDS011;25564;53.312;9.790;2022-07-04T07:25:01;2.58;;;1.23;;
39890;SDS011;25564;53.312;9.790;2022-07-04T07:27:32;3.15;;;1.20;;
39890;SDS011;25564;53.312;9.790;2022-07-04T07:30:04;4.65;;;1.58;;
39890;SDS011;25564;53.312;9.790;2022-07-04T07:32:36;3.47;;;1.70;;
39890;SDS011;25564;53.312;9.790;2022-07-04T07:35:08;6.32;;;1.20;;
39890;SDS011;25564;53.312;9.790;2022-07-04T07:37:39;1.92;;;1.25;;
39890;SDS011;25564;53.312;9.790;2022-07-04T07:40:11;5.75;;;1.60;;
39890;SDS011;25564;53.312;9.790;2022-07-04T07:42:42;4.50;;;1.13;;
39890;SDS011;25564;53.312;9.790;2022-07-04T07:45:14;5.72;;;1.98;;
39890;SDS011;25564;53.312;9.790;2022-07-04T07:47:45;2.42;;;1.02;;
39890;SDS011;25564;53.312;9.790;2022-07-04T07:50:17;2.67;;;0.90;;
39890;SDS011;25564;53.312;9.790;2022-07-04T07:52:49;1.48;;;0.90;;
39890;SDS011;25564;53.312;9.790;2022-07-04T07:55:20;4.22;;;0.80;;
39890;SDS011;25564;53.312;9.790;2022-07-04T07:57:51;1.70;;;0.80;;
39890;SDS011;25564;53.312;9.790;2022-07-04T08:00:24;3.70;;;0.88;;
39890;SDS011;25564;53.312;9.790;2022-07-04T08:03:15;3.63;;;1.00;;
39890;SDS011;25564;53.312;9.790;2022-07-04T08:06:06;3.80;;;0.93;;
39890;SDS011;25564;53.312;9.790;2022-07-04T08:08:37;2.85;;;1.00;;
39890;SDS011;25564;53.312;9.790;2022-07-04T08:11:09;2.75;;;0.70;;
39890;SDS011;25564;53.312;9.790;2022-07-04T08:13:42;1.80;;;0.80;;
39890;SDS011;25564;53.312;9.790;2022-07-04T08:16:13;2.40;;;0.80;;
39890;SDS011;25564;53.312;9.790;2022-07-04T08:18:45;2.22;;;0.60;;
39890;SDS011;25564;53.312;9.790;2022-07-04T08:21:16;2.92;;;0.90;;
39890;SDS011;25564;53.312;9.790;2022-07-04T08:23:47;1.98;;;0.60;;
39890;SDS011;25564;53.312;9.790;2022-07-04T08:26:39;1.65;;;0.60;;
39890;SDS011;25564;53.312;9.790;2022-07-04T08:29:10;3.03;;;0.93;;
39890;SDS011;25564;53.312;9.790;2022-07-04T08:31:42;2.13;;;0.90;;
39890;SDS011;25564;53.312;9.790;2022-07-04T08:34:22;3.47;;;0.70;;
39890;SDS011;25564;53.312;9.790;2022-07-04T08:36:53;5.47;;;0.90;;
39890;SDS011;25564;53.312;9.790;2022-07-04T08:39:25;1.77;;;0.82;;
39890;SDS011;25564;53.312;9.790;2022-07-04T08:41:56;1.70;;;0.70;;
39890;SDS011;25564;53.312;9.790;2022-07-04T08:44:34;2.58;;;0.70;;
39890;SDS011;25564;53.312;9.790;2022-07-04T08:47:10;2.83;;;0.70;;
39890;SDS011;25564;53.312;9.790;2022-07-04T08:50:09;3.08;;;0.93;;
39890;SDS011;25564;53.312;9.790;2022-07-04T08:52:42;4.55;;;0.90;;
39890;SDS011;25564;53.312;9.790;2022-07-04T08:55:18;3.10;;;0.90;;
39890;SDS011;25564;53.312;9.790;2022-07-04T08:58:08;2.88;;;0.77;;
39890;SDS011;25564;53.312;9.790;2022-07-04T09:01:00;4.07;;;0.73;;
39890;SDS011;25564;53.312;9.790;2022-07-04T09:03:36;2.75;;;0.73;;
39890;SDS011;25564;53.312;9.790;2022-07-04T09:06:08;1.17;;;1.05;;
39890;SDS011;25564;53.312;9.790;2022-07-04T09:08:40;2.53;;;0.65;;
39890;SDS011;25564;53.312;9.790;2022-07-04T09:11:11;5.88;;;0.85;;
39890;SDS011;25564;53.312;9.790;2022-07-04T09:13:43;1.83;;;0.70;;
39890;SDS011;25564;53.312;9.790;2022-07-04T09:16:15;3.55;;;0.98;;
39890;SDS011;25564;53.312;9.790;2022-07-04T09:18:46;1.30;;;0.75;;
39890;SDS011;25564;53.312;9.790;2022-07-04T09:21:17;2.15;;;0.77;;
39890;SDS011;25564;53.312;9.790;2022-07-04T09:23:49;5.38;;;1.02;;
39890;SDS011;25564;53.312;9.790;2022-07-04T09:26:21;2.65;;;1.02;;
39890;SDS011;25564;53.312;9.790;2022-07-04T09:28:54;3.95;;;0.80;;
39890;SDS011;25564;53.312;9.790;2022-07-04T09:31:30;1.33;;;0.50;;
39890;SDS011;25564;53.312;9.790;2022-07-04T09:34:03;2.38;;;0.75;;
39890;SDS011;25564;53.312;9.790;2022-07-04T09:36:40;2.47;;;0.93;;
39890;SDS011;25564;53.312;9.790;2022-07-04T09:39:15;2.63;;;0.68;;
39890;SDS011;25564;53.312;9.790;2022-07-04T09:42:03;1.52;;;0.73;;
39890;SDS011;25564;53.312;9.790;2022-07-04T09:44:44;4.18;;;1.20;;
39890;SDS011;25564;53.312;9.790;2022-07-04T09:47:22;1.02;;;0.73;;
39890;SDS011;25564;53.312;9.790;2022-07-04T09:50:06;2.42;;;0.90;;
39890;SDS011;25564;53.312;9.790;2022-07-04T09:55:21;4.55;;;0.90;;
39890;SDS011;25564;53.312;9.790;2022-07-04T09:58:00;2.28;;;0.90;;
39890;SDS011;25564;53.312;9.790;2022-07-04T10:00:36;2.15;;;0.70;;
39890;SDS011;25564;53.312;9.790;2022-07-04T10:08:35;4.35;;;0.60;;
39890;SDS011;25564;53.312;9.790;2022-07-04T10:11:07;2.42;;;0.70;;
39890;SDS011;25564;53.312;9.790;2022-07-04T10:13:42;1.00;;;0.60;;
39890;SDS011;25564;53.312;9.790;2022-07-04T10:16:15;2.35;;;0.60;;
39890;SDS011;25564;53.312;9.790;2022-07-04T10:18:47;3.05;;;0.70;;
39890;SDS011;25564;53.312;9.790;2022-07-04T10:21:19;1.98;;;0.60;;
39890;SDS011;25564;53.312;9.790;2022-07-04T10:23:51;1.48;;;0.60;;
39890;SDS011;25564;53.312;9.790;2022-07-04T10:26:23;1.77;;;0.50;;
39890;SDS011;25564;53.312;9.790;2022-07-04T10:28:55;1.25;;;0.68;;
39890;SDS011;25564;53.312;9.790;2022-07-04T10:31:27;1.48;;;0.50;;
39890;SDS011;25564;53.312;9.790;2022-07-04T10:34:00;2.50;;;0.70;;
39890;SDS011;25564;53.312;9.790;2022-07-04T10:36:33;2.45;;;0.63;;
39890;SDS011;25564;53.312;9.790;2022-07-04T10:39:05;0.85;;;0.50;;
39890;SDS011;25564;53.312;9.790;2022-07-04T10:41:36;2.20;;;0.90;;
39890;SDS011;25564;53.312;9.790;2022-07-04T10:44:28;2.03;;;0.57;;
39890;SDS011;25564;53.312;9.790;2022-07-04T10:47:08;2.03;;;0.63;;
39890;SDS011;25564;53.312;9.790;2022-07-04T10:49:59;4.28;;;1.20;;
39890;SDS011;25564;53.312;9.790;2022-07-04T10:52:30;1.42;;;0.50;;
39890;SDS011;25564;53.312;9.790;2022-07-04T10:55:10;0.52;;;0.50;;
39890;SDS011;25564;53.312;9.790;2022-07-04T10:57:42;1.92;;;0.55;;
39890;SDS011;25564;53.312;9.790;2022-07-04T11:00:15;2.67;;;0.68;;
39890;SDS011;25564;53.312;9.790;2022-07-04T11:02:46;3.25;;;0.60;;
39890;SDS011;25564;53.312;9.790;2022-07-04T11:05:26;1.27;;;0.80;;
39890;SDS011;25564;53.312;9.790;2022-07-04T11:08:02;1.98;;;0.68;;
39890;SDS011;25564;53.312;9.790;2022-07-04T11:10:36;2.75;;;0.93;;
39890;SDS011;25564;53.312;9.790;2022-07-04T11:13:13;2.95;;;0.88;;
39890;SDS011;25564;53.312;9.790;2022-07-04T11:18:18;3.25;;;0.80;;
39890;SDS011;25564;53.312;9.790;2022-07-04T11:20:51;3.83;;;0.70;;
39890;SDS011;25564;53.312;9.790;2022-07-04T11:23:22;1.92;;;0.90;;
39890;SDS011;25564;53.312;9.790;2022-07-04T11:25:55;3.83;;;0.80;;
39890;SDS011;25564;53.312;9.790;2022-07-04T11:28:29;2.97;;;0.80;;
39890;SDS011;25564;53.312;9.790;2022-07-04T11:31:15;2.40;;;0.50;;
39890;SDS011;25564;53.312;9.790;2022-07-04T11:33:47;3.10;;;0.80;;
39890;SDS011;25564;53.312;9.790;2022-07-04T11:36:25;2.08;;;0.90;;
39890;SDS011;25564;53.312;9.790;2022-07-04T11:39:16;2.40;;;0.60;;
39890;SDS011;25564;53.312;9.790;2022-07-04T11:41:51;1.75;;;0.88;;
39890;SDS011;25564;53.312;9.790;2022-07-04T11:44:46;1.10;;;0.57;;
39890;SDS011;25564;53.312;9.790;2022-07-04T11:50:10;2.65;;;0.88;;
39890;SDS011;25564;53.312;9.790;2022-07-04T11:52:44;1.55;;;0.68;;
39890;SDS011;25564;53.312;9.790;2022-07-04T11:55:37;2.08;;;0.98;;
39890;SDS011;25564;53.312;9.790;2022-07-04T11:58:08;2.25;;;1.05;;
39890;SDS011;25564;53.312;9.790;2022-07-04T12:00:44;2.10;;;0.57;;
39890;SDS011;25564;53.312;9.790;2022-07-04T12:03:16;2.38;;;0.68;;
39890;SDS011;25564;53.312;9.790;2022-07-04T12:05:59;1.52;;;0.60;;
39890;SDS011;25564;53.312;9.790;2022-07-04T12:08:31;1.02;;;0.60;;
39890;SDS011;25564;53.312;9.790;2022-07-04T12:11:03;2.45;;;0.90;;
39890;SDS011;25564;53.312;9.790;2022-07-04T12:13:34;1.13;;;0.60;;
39890;SDS011;25564;53.312;9.790;2022-07-04T12:16:10;1.77;;;0.70;;
39890;SDS011;25564;53.312;9.790;2022-07-04T12:18:43;6.35;;;1.00;;
39890;SDS011;25564;53.312;9.790;2022-07-04T12:21:15;3.00;;;0.60;;
39890;SDS011;25564;53.312;9.790;2022-07-04T12:23:54;2.28;;;0.73;;
39890;SDS011;25564;53.312;9.790;2022-07-04T12:26:45;1.50;;;0.80;;
39890;SDS011;25564;53.312;9.790;2022-07-04T12:29:22;0.55;;;0.55;;
39890;SDS011;25564;53.312;9.790;2022-07-04T12:32:02;2.90;;;0.90;;
39890;SDS011;25564;53.312;9.790;2022-07-04T12:34:35;1.45;;;0.80;;
39890;SDS011;25564;53.312;9.790;2022-07-04T12:37:11;1.63;;;0.80;;
39890;SDS011;25564;53.312;9.790;2022-07-04T12:39:44;2.30;;;0.77;;
39890;SDS011;25564;53.312;9.790;2022-07-04T12:42:17;1.27;;;0.70;;
39890;SDS011;25564;53.312;9.790;2022-07-04T12:44:50;3.53;;;0.90;;
39890;SDS011;25564;53.312;9.790;2022-07-04T12:47:22;1.55;;;0.75;;
39890;SDS011;25564;53.312;9.790;2022-07-04T12:50:12;2.42;;;0.70;;
39890;SDS011;25564;53.312;9.790;2022-07-04T12:52:44;3.65;;;1.17;;
39890;SDS011;25564;53.312;9.790;2022-07-04T12:55:15;3.00;;;0.90;;
39890;SDS011;25564;53.312;9.790;2022-07-04T12:57:47;1.63;;;0.80;;
39890;SDS011;25564;53.312;9.790;2022-07-04T13:00:18;1.83;;;1.00;;
39890;SDS011;25564;53.312;9.790;2022-07-04T13:03:06;3.38;;;1.23;;
39890;SDS011;25564;53.312;9.790;2022-07-04T13:05:38;4.57;;;0.95;;
39890;SDS011;25564;53.312;9.790;2022-07-04T13:08:10;3.33;;;1.55;;
39890;SDS011;25564;53.312;9.790;2022-07-04T13:10:43;1.33;;;0.70;;
39890;SDS011;25564;53.312;9.790;2022-07-04T13:13:14;1.08;;;0.60;;
39890;SDS011;25564;53.312;9.790;2022-07-04T13:15:45;2.17;;;1.00;;
39890;SDS011;25564;53.312;9.790;2022-07-04T13:18:17;2.90;;;0.80;;
39890;SDS011;25564;53.312;9.790;2022-07-04T13:20:48;2.97;;;0.80;;
39890;SDS011;25564;53.312;9.790;2022-07-04T13:23:20;2.97;;;0.80;;
39890;SDS011;25564;53.312;9.790;2022-07-04T13:25:51;1.77;;;0.80;;
39890;SDS011;25564;53.312;9.790;2022-07-04T13:28:22;1.45;;;0.82;;
39890;SDS011;25564;53.312;9.790;2022-07-04T13:30:54;1.77;;;0.70;;
39890;SDS011;25564;53.312;9.790;2022-07-04T13:33:26;6.00;;;1.00;;
39890;SDS011;25564;53.312;9.790;2022-07-04T13:35:58;3.00;;;0.82;;
39890;SDS011;25564;53.312;9.790;2022-07-04T13:38:29;2.47;;;1.05;;
39890;SDS011;25564;53.312;9.790;2022-07-04T13:41:01;2.33;;;0.90;;
39890;SDS011;25564;53.312;9.790;2022-07-04T13:43:32;3.50;;;0.80;;
39890;SDS011;25564;53.312;9.790;2022-07-04T13:46:04;1.70;;;0.70;;
39890;SDS011;25564;53.312;9.790;2022-07-04T13:48:35;2.75;;;0.80;;
39890;SDS011;25564;53.312;9.790;2022-07-04T13:51:07;1.65;;;0.63;;
39890;SDS011;25564;53.312;9.790;2022-07-04T13:53:38;5.50;;;0.88;;
39890;SDS011;25564;53.312;9.790;2022-07-04T13:56:10;4.00;;;1.13;;
39890;SDS011;25564;53.312;9.790;2022-07-04T13:58:44;2.55;;;0.60;;
39890;SDS011;25564;53.312;9.790;2022-07-04T14:01:16;4.65;;;0.88;;
39890;SDS011;25564;53.312;9.790;2022-07-04T14:03:49;1.42;;;0.60;;
39890;SDS011;25564;53.312;9.790;2022-07-04T14:06:21;2.40;;;0.80;;
39890;SDS011;25564;53.312;9.790;2022-07-04T14:08:53;4.55;;;1.00;;
39890;SDS011;25564;53.312;9.790;2022-07-04T14:11:24;2.45;;;0.80;;
39890;SDS011;25564;53.312;9.790;2022-07-04T14:13:55;3.25;;;0.80;;
39890;SDS011;25564;53.312;9.790;2022-07-04T14:16:28;0.98;;;0.70;;
39890;SDS011;25564;53.312;9.790;2022-07-04T14:19:00;0.93;;;0.60;;
39890;SDS011;25564;53.312;9.790;2022-07-04T14:21:31;2.42;;;0.90;;
39890;SDS011;25564;53.312;9.790;2022-07-04T14:24:03;0.82;;;0.55;;
39890;SDS011;25564;53.312;9.790;2022-07-04T14:26:35;4.00;;;0.80;;
39890;SDS011;25564;53.312;9.790;2022-07-04T14:29:06;2.63;;;0.90;;
39890;SDS011;25564;53.312;9.790;2022-07-04T14:31:37;2.22;;;0.63;;
39890;SDS011;25564;53.312;9.790;2022-07-04T14:34:09;2.13;;;0.80;;
39890;SDS011;25564;53.312;9.790;2022-07-04T14:36:42;2.08;;;0.77;;
39890;SDS011;25564;53.312;9.790;2022-07-04T14:39:14;1.25;;;0.68;;
39890;SDS011;25564;53.312;9.790;2022-07-04T14:41:48;6.93;;;1.15;;
39890;SDS011;25564;53.312;9.790;2022-07-04T14:46:52;3.42;;;0.82;;
39890;SDS011;25564;53.312;9.790;2022-07-04T14:49:23;4.13;;;0.70;;
39890;SDS011;25564;53.312;9.790;2022-07-04T14:51:55;2.13;;;0.88;;
39890;SDS011;25564;53.312;9.790;2022-07-04T14:54:28;2.67;;;0.90;;
39890;SDS011;25564;53.312;9.790;2022-07-04T14:56:59;1.70;;;0.90;;
39890;SDS011;25564;53.312;9.790;2022-07-04T14:59:31;3.40;;;1.00;;
39890;SDS011;25564;53.312;9.790;2022-07-04T15:02:05;4.07;;;1.17;;
39890;SDS011;25564;53.312;9.790;2022-07-04T15:04:37;3.22;;;0.85;;
39890;SDS011;25564;53.312;9.790;2022-07-04T15:07:08;7.68;;;1.13;;
39890;SDS011;25564;53.312;9.790;2022-07-04T15:09:39;3.55;;;1.00;;
39890;SDS011;25564;53.312;9.790;2022-07-04T15:12:11;7.20;;;1.38;;
39890;SDS011;25564;53.312;9.790;2022-07-04T15:14:42;4.35;;;0.90;;
39890;SDS011;25564;53.312;9.790;2022-07-04T15:17:13;4.97;;;0.98;;
39890;SDS011;25564;53.312;9.790;2022-07-04T15:19:46;5.88;;;1.35;;
39890;SDS011;25564;53.312;9.790;2022-07-04T15:22:36;4.65;;;1.55;;
39890;SDS011;25564;53.312;9.790;2022-07-04T15:25:26;5.65;;;1.40;;
39890;SDS011;25564;53.312;9.790;2022-07-04T15:27:57;2.42;;;1.00;;
39890;SDS011;25564;53.312;9.790;2022-07-04T15:30:28;4.90;;;1.20;;
39890;SDS011;25564;53.312;9.790;2022-07-04T15:33:00;2.55;;;1.08;;
39890;SDS011;25564;53.312;9.790;2022-07-04T15:35:32;5.20;;;1.17;;
39890;SDS011;25564;53.312;9.790;2022-07-04T15:38:03;2.22;;;1.15;;